createdAt,value
2023-01-30T00:01:56.173Z,23.69
2023-01-30T00:04:22.789Z,23.75
2023-01-30T00:06:49.524Z,22.04
2023-01-30T00:09:16.365Z,22.07
2023-01-30T00:11:43.055Z,22.47
2023-01-30T00:14:09.660Z,22.23
2023-01-30T00:16:36.415Z,22.47
2023-01-30T00:19:03.409Z,23.02
2023-01-30T00:21:30.131Z,22.59
2023-01-30T00:23:56.714Z,22.58
2023-01-30T00:26:23.656Z,23.05
2023-01-30T00:28:50.468Z,23.27
2023-01-30T00:31:17.216Z,22.77
2023-01-30T00:33:46.353Z,22.30
2023-01-30T00:36:12.956Z,23.66
2023-01-30T00:38:39.722Z,23.75
2023-01-30T00:41:06.411Z,22.57
2023-01-30T00:43:33.450Z,21.83
2023-01-30T00:46:00.289Z,22.32
2023-01-30T00:48:27.228Z,22.84
2023-01-30T00:50:54.923Z,22.97
2023-01-30T00:53:21.798Z,23.40
2023-01-30T00:55:48.431Z,23.34
2023-01-30T00:58:15.215Z,23.27
2023-01-30T01:00:42.153Z,22.62
2023-01-30T01:03:11.188Z,23.31
2023-01-30T01:05:38.055Z,23.67
2023-01-30T01:08:06.843Z,24.24
2023-01-30T01:10:33.684Z,24.17
2023-01-30T01:13:00.595Z,23.76
2023-01-30T01:15:27.479Z,24.21
2023-01-30T01:17:54.046Z,24.15
2023-01-30T01:20:20.962Z,24.96
2023-01-30T01:22:49.727Z,24.39
2023-01-30T01:25:19.192Z,24.89
2023-01-30T01:27:45.993Z,24.46
2023-01-30T01:30:12.462Z,24.49
2023-01-30T01:32:39.323Z,25.21
2023-01-30T01:35:05.901Z,25.29
2023-01-30T01:37:32.676Z,24.79
2023-01-30T01:40:02.345Z,24.96
2023-01-30T01:42:30.225Z,24.68
2023-01-30T01:44:56.757Z,24.84
2023-01-30T01:47:23.266Z,25.30
2023-01-30T01:49:52.343Z,24.54
2023-01-30T01:52:18.827Z,25.36
2023-01-30T01:54:45.358Z,24.77
2023-01-30T01:57:12.106Z,24.59
2023-01-30T01:59:38.935Z,24.26
2023-01-30T02:02:05.744Z,25.00
2023-01-30T02:04:32.312Z,25.41
2023-01-30T02:06:58.899Z,25.05
2023-01-30T02:09:25.646Z,24.15
2023-01-30T02:11:52.389Z,24.65
2023-01-30T02:17:08.912Z,25.02
2023-01-30T02:19:36.460Z,26.49
2023-01-30T02:22:03.266Z,25.94
2023-01-30T02:24:30.022Z,25.53
2023-01-30T02:26:56.473Z,25.69
2023-01-30T02:29:23.243Z,25.73
2023-01-30T02:31:49.781Z,26.94
2023-01-30T02:34:16.548Z,26.80
2023-01-30T02:36:43.369Z,26.22
2023-01-30T02:39:10.159Z,26.32
2023-01-30T02:41:36.883Z,26.91
2023-01-30T02:44:05.814Z,25.77
2023-01-30T02:46:32.563Z,27.04
2023-01-30T02:48:59.446Z,26.94
2023-01-30T02:51:26.200Z,26.81
2023-01-30T02:53:52.849Z,27.08
2023-01-30T02:56:21.950Z,27.69
2023-01-30T02:58:48.410Z,27.29
2023-01-30T03:01:15.516Z,26.13
2023-01-30T03:03:42.044Z,26.35
2023-01-30T03:06:09.016Z,26.71
2023-01-30T03:08:37.351Z,26.21
2023-01-30T03:11:04.041Z,26.05
2023-01-30T03:13:31.006Z,26.80
2023-01-30T03:15:57.720Z,26.24
2023-01-30T03:18:24.523Z,26.67
2023-01-30T03:20:51.346Z,26.65
2023-01-30T03:23:18.379Z,27.07
2023-01-30T03:25:48.350Z,27.16
2023-01-30T03:28:15.019Z,27.08
2023-01-30T03:30:41.922Z,26.70
2023-01-30T03:33:08.447Z,26.83
2023-01-30T03:35:35.268Z,26.88
2023-01-30T03:38:04.052Z,27.66
2023-01-30T03:40:30.713Z,27.13
2023-01-30T03:42:57.542Z,26.41
2023-01-30T03:45:24.469Z,27.04
2023-01-30T03:47:54.532Z,26.40
2023-01-30T03:50:21.384Z,26.23
2023-01-30T03:52:48.521Z,26.19
2023-01-30T03:55:15.042Z,26.13
2023-01-30T03:57:45.047Z,26.10
2023-01-30T04:00:11.871Z,26.03
2023-01-30T04:02:38.883Z,26.07
2023-01-30T04:05:05.500Z,26.26
2023-01-30T04:07:32.246Z,26.32
2023-01-30T04:09:59.426Z,26.14
2023-01-30T04:12:26.002Z,26.31
2023-01-30T04:14:52.815Z,26.52
2023-01-30T04:17:19.337Z,25.86
2023-01-30T04:19:46.168Z,26.78
2023-01-30T04:22:12.737Z,26.18
2023-01-30T04:24:41.825Z,26.79
2023-01-30T04:27:08.659Z,26.32
2023-01-30T04:29:35.510Z,27.11
2023-01-30T04:32:02.324Z,25.79
2023-01-30T04:34:29.153Z,26.26
2023-01-30T04:36:56.491Z,26.50
2023-01-30T04:39:23.275Z,26.33
2023-01-30T04:41:50.221Z,26.90
2023-01-30T04:44:17.068Z,26.15
2023-01-30T04:46:46.103Z,26.78
2023-01-30T04:49:12.926Z,26.59
2023-01-30T04:51:39.906Z,26.98
2023-01-30T04:54:06.524Z,26.47
2023-01-30T04:56:33.951Z,27.29
2023-01-30T04:59:00.545Z,26.38
2023-01-30T05:01:27.387Z,26.44
2023-01-30T05:03:54.162Z,27.80
2023-01-30T05:06:20.767Z,26.96
2023-01-30T05:08:47.571Z,27.17
2023-01-30T05:11:16.416Z,28.40
2023-01-30T05:13:42.981Z,27.16
2023-01-30T05:16:11.565Z,27.67
2023-01-30T05:18:38.252Z,27.57
2023-01-30T05:21:04.847Z,27.07
2023-01-30T05:23:33.461Z,27.32
2023-01-30T05:26:00.863Z,27.72
2023-01-30T05:28:28.201Z,27.91
2023-01-30T05:30:55.126Z,28.26
2023-01-30T05:33:22.162Z,28.76
2023-01-30T05:35:48.885Z,28.12
2023-01-30T05:38:16.365Z,28.27
2023-01-30T05:40:43.160Z,27.81
2023-01-30T05:43:09.745Z,28.51
2023-01-30T06:01:48.741Z,28.83
2023-01-30T06:04:15.683Z,29.17
2023-01-30T06:09:53.524Z,29.42
2023-01-30T06:12:21.098Z,29.73
2023-01-30T06:14:47.563Z,29.41
2023-01-30T06:17:15.030Z,29.78
2023-01-30T06:19:42.520Z,30.11
2023-01-30T06:22:09.797Z,30.77
2023-01-30T06:24:36.377Z,33.24
2023-01-30T06:27:05.460Z,31.41
2023-01-30T06:29:32.111Z,30.75
2023-01-30T06:32:01.907Z,30.18
2023-01-30T06:34:28.553Z,30.62
2023-01-30T06:36:55.449Z,30.47
2023-01-30T06:39:22.742Z,30.72
2023-01-30T06:41:49.657Z,30.73
2023-01-30T06:44:20.253Z,30.72
2023-01-30T06:46:50.592Z,29.90
2023-01-30T06:49:18.333Z,32.05
2023-01-30T06:51:52.357Z,31.38
2023-01-30T06:54:19.076Z,31.96
2023-01-30T06:56:45.762Z,30.67
2023-01-30T06:59:12.476Z,31.49
2023-01-30T07:01:39.443Z,31.18
2023-01-30T07:04:12.298Z,30.59
2023-01-30T07:06:40.245Z,32.07
2023-01-30T07:09:07.131Z,31.25
2023-01-30T07:11:36.254Z,31.27
2023-01-30T07:14:05.113Z,32.23
2023-01-30T07:16:34.784Z,32.36
2023-01-30T07:19:02.514Z,31.47
2023-01-30T07:24:46.935Z,30.71
2023-01-30T07:27:16.351Z,30.26
2023-01-30T07:29:43.780Z,30.76
2023-01-30T07:32:10.897Z,31.15
2023-01-30T07:34:39.870Z,30.67
2023-01-30T07:37:08.949Z,29.79
2023-01-30T07:39:35.836Z,29.82
2023-01-30T07:42:02.706Z,30.89
2023-01-30T07:44:31.663Z,31.30
2023-01-30T07:46:58.584Z,31.30
2023-01-30T07:49:25.476Z,30.97
2023-01-30T07:51:52.240Z,31.22
2023-01-30T07:54:18.701Z,31.93
2023-01-30T07:56:48.312Z,31.18
2023-01-30T07:59:15.061Z,31.43
2023-01-30T08:01:43.519Z,32.95
2023-01-30T08:04:10.409Z,32.29
2023-01-30T08:06:37.608Z,32.01
2023-01-30T08:09:07.443Z,32.50
2023-01-30T08:11:34.276Z,32.17
2023-01-30T08:14:01.177Z,33.50
2023-01-30T08:16:27.948Z,32.86
2023-01-30T08:18:56.915Z,32.16
2023-01-30T08:21:26.082Z,32.45
2023-01-30T08:23:52.929Z,32.07
2023-01-30T08:26:22.232Z,30.98
2023-01-30T08:28:49.160Z,32.66
2023-01-30T08:31:16.445Z,32.20
2023-01-30T08:33:43.373Z,31.94
2023-01-30T08:36:10.216Z,30.77
2023-01-30T08:38:38.579Z,30.38
2023-01-30T08:41:05.545Z,30.76
2023-01-30T08:43:32.296Z,30.97
2023-01-30T08:45:58.947Z,31.29
2023-01-30T08:48:28.181Z,30.25
2023-01-30T08:50:55.057Z,31.37
2023-01-30T08:53:21.528Z,31.43
2023-01-30T08:55:49.189Z,31.35
2023-01-30T08:58:16.188Z,31.06
2023-01-30T09:00:43.009Z,29.55
2023-01-30T09:03:09.684Z,29.07
2023-01-30T09:05:38.798Z,30.65
2023-01-30T09:08:06.388Z,30.17
2023-01-30T09:10:35.502Z,30.49
2023-01-30T09:13:04.570Z,29.00
2023-01-30T09:15:31.455Z,29.41
2023-01-30T09:17:58.237Z,29.68
2023-01-30T09:20:25.308Z,30.08
2023-01-30T09:22:55.193Z,28.25
2023-01-30T09:25:21.758Z,25.61
2023-01-30T09:27:49.494Z,26.37
2023-01-30T09:30:16.562Z,27.06
2023-01-30T09:32:43.561Z,29.97
2023-01-30T09:35:10.311Z,32.96
2023-01-30T09:37:39.090Z,28.64
2023-01-30T09:40:05.602Z,29.67
2023-01-30T09:42:32.311Z,29.03
2023-01-30T09:45:01.342Z,29.61
2023-01-30T09:47:28.763Z,28.66
2023-01-30T09:50:00.539Z,29.80
2023-01-30T09:52:27.892Z,29.60
2023-01-30T09:54:54.617Z,30.42
2023-01-30T09:57:22.600Z,29.13
2023-01-30T09:59:49.833Z,29.70
2023-01-30T10:02:17.706Z,29.36
2023-01-30T10:05:00.195Z,29.57
2023-01-30T10:07:27.683Z,29.24
2023-01-30T10:09:54.263Z,29.40
2023-01-30T10:12:21.654Z,29.15
2023-01-30T10:14:48.320Z,28.30
2023-01-30T10:17:15.060Z,29.01
2023-01-30T10:19:41.987Z,28.77
2023-01-30T10:22:08.556Z,29.51
2023-01-30T10:24:35.302Z,30.50
2023-01-30T10:27:03.739Z,29.81
2023-01-30T10:29:31.693Z,30.04
2023-01-30T10:31:58.381Z,29.93
2023-01-30T10:34:25.229Z,30.18
2023-01-30T10:36:52.034Z,31.07
2023-01-30T10:39:19.022Z,31.57
2023-01-30T10:41:45.885Z,30.93
2023-01-30T10:44:14.882Z,33.48
2023-01-30T10:46:44.491Z,31.83
2023-01-30T10:49:11.204Z,32.08
2023-01-30T10:51:38.497Z,31.61
2023-01-30T10:54:05.052Z,32.27
2023-01-30T10:56:35.127Z,32.14
2023-01-30T10:59:01.974Z,31.90
2023-01-30T11:01:28.897Z,32.31
2023-01-30T11:03:55.479Z,31.87
2023-01-30T11:06:22.129Z,30.23
2023-01-30T11:08:48.999Z,29.71
2023-01-30T11:11:16.027Z,29.39
2023-01-30T11:13:42.918Z,30.11
2023-01-30T11:16:10.570Z,30.06
2023-01-30T11:21:27.012Z,28.53
2023-01-30T11:23:56.003Z,27.64
2023-01-30T11:26:22.863Z,28.30
2023-01-30T11:28:52.500Z,27.97
2023-01-30T11:31:28.287Z,27.77
2023-01-30T11:34:02.745Z,27.09
2023-01-30T11:36:29.291Z,27.67
2023-01-30T11:38:56.249Z,27.34
2023-01-30T11:41:24.326Z,27.27
2023-01-30T11:43:51.207Z,28.10
2023-01-30T11:46:18.340Z,27.77
2023-01-30T11:49:09.063Z,28.16
2023-01-30T11:51:33.917Z,27.51
2023-01-30T11:54:02.818Z,26.88
2023-01-30T11:56:29.734Z,28.92
2023-01-30T11:58:56.706Z,29.08
2023-01-30T12:01:23.518Z,27.73
2023-01-30T12:03:50.328Z,28.47
2023-01-30T12:06:17.130Z,27.81
2023-01-30T12:08:44.770Z,27.69
2023-01-30T12:11:11.972Z,28.46
2023-01-30T12:13:38.617Z,27.71
2023-01-30T12:16:05.405Z,28.14
2023-01-30T12:18:32.005Z,26.79
2023-01-30T12:20:59.599Z,27.27
2023-01-30T12:23:26.113Z,27.97
2023-01-30T12:25:52.660Z,28.65
2023-01-30T12:28:21.546Z,27.72
2023-01-30T12:30:48.467Z,27.57
2023-01-30T12:33:15.289Z,27.56
2023-01-30T12:35:42.062Z,26.46
2023-01-30T12:38:08.739Z,26.88
2023-01-30T12:40:35.539Z,28.49
2023-01-30T12:43:02.149Z,28.71
2023-01-30T12:45:29.417Z,27.21
2023-01-30T12:47:55.996Z,26.85
2023-01-30T12:50:24.845Z,27.84
2023-01-30T12:52:51.798Z,27.69
2023-01-30T12:55:19.104Z,26.95
2023-01-30T12:57:45.615Z,27.42
2023-01-30T13:00:12.914Z,27.30
2023-01-30T13:02:39.855Z,26.17
2023-01-30T13:05:06.805Z,27.52
2023-01-30T13:07:33.401Z,26.84
2023-01-30T13:09:59.964Z,26.52
2023-01-30T13:12:26.582Z,27.64
2023-01-30T13:14:53.261Z,27.09
2023-01-30T13:17:19.750Z,26.60
2023-01-30T13:19:47.182Z,26.52
2023-01-30T13:22:13.856Z,28.04
2023-01-30T13:24:40.700Z,26.65
2023-01-30T13:27:07.334Z,26.93
2023-01-30T13:29:34.219Z,26.96
2023-01-30T13:32:02.191Z,26.60
2023-01-30T13:34:29.021Z,26.49
2023-01-30T13:36:55.531Z,26.27
2023-01-30T13:39:25.001Z,27.02
2023-01-30T13:41:54.979Z,27.15
2023-01-30T13:44:22.001Z,26.17
2023-01-30T13:49:48.192Z,26.59
2023-01-30T13:52:18.737Z,27.31
2023-01-30T13:54:46.712Z,27.69
2023-01-30T13:57:13.526Z,27.09
2023-01-30T13:59:40.858Z,26.71
2023-01-30T14:02:07.655Z,28.62
2023-01-30T14:04:35.755Z,30.21
2023-01-30T14:07:03.784Z,27.83
2023-01-30T14:09:30.724Z,27.87
2023-01-30T14:11:58.147Z,27.80
2023-01-30T14:14:24.940Z,27.83
2023-01-30T14:16:51.497Z,28.49
2023-01-30T14:19:18.812Z,27.78
2023-01-30T14:21:46.791Z,27.65
2023-01-30T14:24:15.500Z,28.65
2023-01-30T14:26:42.350Z,26.72
2023-01-30T14:29:09.225Z,26.18
2023-01-30T14:31:36.224Z,26.28
2023-01-30T14:34:03.305Z,26.76
2023-01-30T14:36:30.796Z,31.25
2023-01-30T14:38:57.617Z,32.22
2023-01-30T14:41:28.452Z,26.84
2023-01-30T14:44:02.230Z,28.14
2023-01-30T14:46:42.628Z,27.74
2023-01-30T14:49:27.197Z,27.97
2023-01-30T14:51:54.398Z,27.27
2023-01-30T14:54:23.451Z,27.73
2023-01-30T14:56:56.889Z,28.16
2023-01-30T14:59:23.446Z,27.18
2023-01-30T15:01:50.129Z,27.35
2023-01-30T15:04:16.831Z,27.07
2023-01-30T15:06:43.745Z,27.49
2023-01-30T15:09:10.734Z,27.33
2023-01-30T15:11:37.459Z,27.18
2023-01-30T15:14:06.558Z,27.49
2023-01-30T15:16:34.036Z,27.38
2023-01-30T15:19:00.837Z,27.87
2023-01-30T15:21:28.807Z,28.44
2023-01-30T15:23:56.106Z,27.43
2023-01-30T15:26:23.971Z,27.13
2023-01-30T15:28:53.017Z,27.97
2023-01-30T15:31:21.559Z,32.13
2023-01-30T15:33:49.401Z,28.05
2023-01-30T15:36:16.911Z,33.21
2023-01-30T15:38:43.491Z,28.22
2023-01-30T15:41:12.809Z,29.41
2023-01-30T15:43:42.145Z,28.67
2023-01-30T15:46:12.095Z,27.81
2023-01-30T15:48:40.898Z,28.60
2023-01-30T15:51:07.610Z,28.12
2023-01-30T15:53:34.485Z,27.70
2023-01-30T15:56:04.480Z,28.71
2023-01-30T15:58:31.371Z,28.49
2023-01-30T16:00:58.105Z,28.99
2023-01-30T16:03:29.851Z,27.98
2023-01-30T16:05:56.762Z,28.65
2023-01-30T16:08:23.541Z,28.10
2023-01-30T16:10:53.996Z,27.87
2023-01-30T16:13:21.180Z,27.00
2023-01-30T16:15:47.949Z,29.09
2023-01-30T16:18:14.638Z,28.29
2023-01-30T16:20:48.717Z,28.78
2023-01-30T16:23:22.391Z,28.25
2023-01-30T16:25:49.568Z,29.28
2023-01-30T16:28:16.281Z,28.08
2023-01-30T16:30:43.998Z,28.00
2023-01-30T16:33:15.147Z,28.45
2023-01-30T16:38:58.943Z,30.45
2023-01-30T16:41:25.678Z,28.72
2023-01-30T16:46:35.439Z,28.46
2023-01-30T16:49:02.036Z,27.79
2023-01-30T16:51:31.146Z,29.30
2023-01-30T16:53:59.210Z,28.14
2023-01-30T16:56:26.028Z,29.30
2023-01-30T16:58:52.635Z,28.25
2023-01-30T17:01:19.953Z,28.29
2023-01-30T17:03:46.551Z,28.58
2023-01-30T17:06:13.487Z,28.54
2023-01-30T17:08:40.072Z,28.84
2023-01-30T17:11:07.651Z,28.60
2023-01-30T17:13:35.040Z,28.53
2023-01-30T17:16:06.880Z,28.54
2023-01-30T17:18:35.790Z,29.33
2023-01-30T17:21:03.206Z,28.72
2023-01-30T17:23:32.883Z,29.06
2023-01-30T17:26:00.731Z,28.84
2023-01-30T17:28:28.385Z,28.42
2023-01-30T17:30:56.892Z,29.60
2023-01-30T17:33:23.571Z,28.94
2023-01-30T17:35:51.008Z,28.36
2023-01-30T17:38:23.305Z,29.48
2023-01-30T17:43:46.054Z,29.59
2023-01-30T17:46:12.985Z,29.28
2023-01-30T17:48:47.095Z,29.55
2023-01-30T17:51:24.546Z,31.18
2023-01-30T17:53:52.199Z,29.76
2023-01-30T17:56:19.170Z,29.96
2023-01-30T17:58:46.552Z,28.87
2023-01-30T18:01:22.795Z,29.86
2023-01-30T18:03:52.894Z,30.53
2023-01-30T18:06:21.740Z,30.21
2023-01-30T18:08:48.705Z,29.21
2023-01-30T18:11:17.729Z,29.65
2023-01-30T18:13:44.610Z,29.55
2023-01-30T18:16:11.358Z,30.26
2023-01-30T18:18:40.978Z,29.57
2023-01-30T18:21:08.527Z,29.88
2023-01-30T18:23:35.519Z,30.60
2023-01-30T18:26:02.824Z,29.61
2023-01-30T18:28:34.848Z,29.58
2023-01-30T18:31:02.283Z,30.76
2023-01-30T18:33:30.519Z,30.83
2023-01-30T18:35:57.402Z,30.12
2023-01-30T18:38:24.937Z,30.57
2023-01-30T18:40:56.811Z,31.56
2023-01-30T18:43:25.146Z,32.16
2023-01-30T18:45:53.022Z,30.74
2023-01-30T18:48:21.935Z,30.59
2023-01-30T18:50:50.859Z,31.86
2023-01-30T18:53:18.840Z,31.16
2023-01-30T18:55:46.149Z,31.82
2023-01-30T18:58:13.005Z,31.58
2023-01-30T19:03:24.676Z,30.68
2023-01-30T19:05:54.455Z,31.16
2023-01-30T19:08:21.256Z,30.84
2023-01-30T19:10:48.119Z,30.70
2023-01-30T19:13:14.995Z,30.72
2023-01-30T19:15:41.834Z,31.11
2023-01-30T19:18:10.359Z,30.81
2023-01-30T19:20:36.841Z,32.69
2023-01-30T19:29:36.930Z,31.80
2023-01-30T19:32:04.945Z,31.45
2023-01-30T19:34:31.743Z,31.74
2023-01-30T19:36:58.558Z,30.69
2023-01-30T19:39:25.141Z,30.78
2023-01-30T19:41:53.043Z,30.12
2023-01-30T19:44:20.242Z,30.95
2023-01-30T19:46:46.903Z,31.18
2023-01-30T19:49:13.592Z,29.17
2023-01-30T19:51:40.146Z,31.83
2023-01-30T19:54:06.977Z,33.43
2023-01-30T19:56:33.562Z,31.67
2023-01-30T19:59:00.280Z,32.69
2023-01-30T20:01:27.143Z,33.38
2023-01-30T20:03:54.676Z,33.91
2023-01-30T20:06:28.881Z,33.68
2023-01-30T20:08:55.721Z,34.85
2023-01-30T20:11:22.252Z,36.55
2023-01-30T20:13:49.178Z,35.72
2023-01-30T20:16:16.851Z,34.20
2023-01-30T20:18:43.926Z,35.07
2023-01-30T20:21:10.518Z,34.66
2023-01-30T20:23:37.398Z,34.93
2023-01-30T20:26:05.156Z,34.83
2023-01-30T20:28:33.837Z,35.43
2023-01-30T20:31:00.515Z,33.63
2023-01-30T20:33:28.032Z,33.28
2023-01-30T20:35:56.243Z,31.75
2023-01-30T20:38:23.131Z,29.42
2023-01-30T20:40:52.232Z,29.25
2023-01-30T20:43:19.034Z,28.90
2023-01-30T20:45:45.849Z,28.66
2023-01-30T20:48:14.215Z,29.92
2023-01-30T20:50:41.591Z,30.28
2023-01-30T20:53:08.163Z,30.48
2023-01-30T20:55:35.013Z,32.88
2023-01-30T20:58:01.582Z,33.18
2023-01-30T21:00:35.312Z,31.67
2023-01-30T21:03:04.879Z,28.74
2023-01-30T21:05:31.588Z,26.84
2023-01-30T21:07:59.279Z,25.11
2023-01-30T21:13:12.177Z,24.10
2023-01-30T21:15:39.306Z,23.88
2023-01-30T21:18:05.991Z,22.68
2023-01-30T21:20:32.808Z,22.91
2023-01-30T21:23:00.813Z,23.20
2023-01-30T21:25:27.608Z,26.49
2023-01-30T21:27:54.203Z,28.92
2023-01-30T21:30:21.020Z,29.33
2023-01-30T21:32:47.903Z,30.10
2023-01-30T21:35:20.219Z,29.68
2023-01-30T21:37:47.265Z,30.84
2023-01-30T21:40:14.106Z,31.10
2023-01-30T21:42:43.080Z,29.63
2023-01-30T21:45:10.688Z,29.96
2023-01-30T21:47:37.708Z,29.70
2023-01-30T21:50:04.562Z,30.76
2023-01-30T21:52:31.555Z,30.72
2023-01-30T21:55:02.068Z,30.47
2023-01-30T21:57:29.694Z,31.30
2023-01-30T21:59:56.570Z,29.55
2023-01-30T22:02:25.684Z,28.41
2023-01-30T22:04:54.799Z,25.85
2023-01-30T22:07:21.695Z,26.91
2023-01-30T22:09:49.019Z,22.39
2023-01-30T22:12:15.525Z,18.64
2023-01-30T22:14:44.103Z,19.33
2023-01-30T22:17:14.038Z,22.59
2023-01-30T22:19:41.039Z,17.54
2023-01-30T22:22:08.656Z,9.46
2023-01-30T22:24:42.554Z,6.73
2023-01-30T22:27:09.701Z,5.81
2023-01-30T22:29:37.357Z,7.45
2023-01-30T22:32:04.005Z,9.56
2023-01-30T22:34:30.916Z,9.92
2023-01-30T22:36:57.852Z,9.34
2023-01-30T22:39:24.676Z,7.65
2023-01-30T22:41:51.477Z,6.02
2023-01-30T22:44:18.301Z,5.75
2023-01-30T22:46:45.197Z,4.64
2023-01-30T22:49:12.100Z,4.49
2023-01-30T22:51:46.563Z,4.10
2023-01-30T22:54:13.164Z,3.82
2023-01-30T22:56:41.986Z,3.91
2023-01-30T22:59:08.853Z,4.15
2023-01-30T23:01:38.109Z,3.56
2023-01-30T23:04:05.010Z,3.47
2023-01-30T23:06:31.968Z,3.38
2023-01-30T23:08:58.537Z,3.31
2023-01-30T23:11:25.292Z,3.25
2023-01-30T23:13:52.099Z,3.40
2023-01-30T23:16:19.033Z,3.70
2023-01-30T23:18:50.599Z,3.22
2023-01-30T23:21:17.398Z,2.85
2023-01-30T23:23:45.372Z,2.70
2023-01-30T23:26:12.458Z,2.89
2023-01-30T23:28:39.281Z,3.17
2023-01-30T23:31:08.041Z,2.92
2023-01-30T23:33:35.401Z,3.15
2023-01-30T23:36:03.202Z,3.15
2023-01-30T23:38:32.126Z,3.03
2023-01-30T23:40:58.667Z,2.83
2023-01-30T23:43:25.260Z,2.90
2023-01-30T23:45:52.587Z,2.89
2023-01-30T23:48:19.858Z,3.12
2023-01-30T23:50:46.677Z,2.89
2023-01-30T23:53:14.020Z,2.98
2023-01-30T23:55:41.861Z,3.20
2023-01-30T23:58:08.413Z,3.18
